createdAt,value
2023-04-14T00:01:39.730Z,6.47
2023-04-14T00:04:06.652Z,6.30
2023-04-14T00:06:33.311Z,6.03
2023-04-14T00:09:00.067Z,5.27
2023-04-14T00:11:27.189Z,5.37
2023-04-14T00:13:55.821Z,4.97
2023-04-14T00:16:22.473Z,5.53
2023-04-14T00:18:49.226Z,5.10
2023-04-14T00:21:16.190Z,5.10
2023-04-14T00:23:42.752Z,4.83
2023-04-14T00:26:09.360Z,4.80
2023-04-14T00:28:36.034Z,4.80
2023-04-14T00:31:02.770Z,4.70
2023-04-14T00:33:29.357Z,5.07
2023-04-14T00:35:56.902Z,4.60
2023-04-14T00:38:23.807Z,4.60
2023-04-14T00:40:50.343Z,4.40
2023-04-14T00:43:20.436Z,4.27
2023-04-14T00:45:49.293Z,4.63
2023-04-14T00:48:17.393Z,5.17
2023-04-14T00:50:44.331Z,4.60
2023-04-14T00:53:12.623Z,4.60
2023-04-14T00:55:40.261Z,4.60
2023-04-14T00:58:07.454Z,4.47
2023-04-14T01:00:35.269Z,4.13
2023-04-14T01:03:02.118Z,4.23
2023-04-14T01:05:28.963Z,4.00
2023-04-14T01:07:55.696Z,3.60
2023-04-14T01:10:24.138Z,3.77
2023-04-14T01:13:13.642Z,3.53
2023-04-14T01:16:00.481Z,3.97
2023-04-14T01:18:45.288Z,3.50
2023-04-14T01:21:17.289Z,3.10
2023-04-14T01:24:09.284Z,3.80
2023-04-14T01:26:36.082Z,3.80
2023-04-14T01:29:02.841Z,4.20
2023-04-14T01:31:48.791Z,4.07
2023-04-14T01:34:43.303Z,3.60
2023-04-14T01:37:16.651Z,3.57
2023-04-14T01:39:52.345Z,4.07
2023-04-14T01:42:23.265Z,3.70
2023-04-14T01:44:55.209Z,3.67
2023-04-14T01:47:24.810Z,3.80
2023-04-14T01:49:53.658Z,3.57
2023-04-14T01:52:22.130Z,3.70
2023-04-14T01:54:52.210Z,3.80
2023-04-14T01:57:22.602Z,4.10
2023-04-14T01:59:51.790Z,3.63
2023-04-14T02:02:21.201Z,3.90
2023-04-14T02:04:49.293Z,3.83
2023-04-14T02:07:17.949Z,3.43
2023-04-14T02:09:48.074Z,3.90
2023-04-14T02:12:15.012Z,4.03
2023-04-14T02:14:43.275Z,3.97
2023-04-14T02:17:11.597Z,4.30
2023-04-14T02:19:38.830Z,3.87
2023-04-14T02:22:05.649Z,3.97
2023-04-14T02:24:32.453Z,4.33
2023-04-14T02:27:07.157Z,3.90
2023-04-14T02:29:35.896Z,3.80
2023-04-14T02:32:14.776Z,3.93
2023-04-14T02:35:08.449Z,3.83
2023-04-14T02:37:40.106Z,4.03
2023-04-14T02:40:17.422Z,3.90
2023-04-14T02:42:48.069Z,3.83
2023-04-14T02:45:21.526Z,3.60
2023-04-14T02:47:53.112Z,4.10
2023-04-14T02:50:22.566Z,4.03
2023-04-14T02:52:51.607Z,3.67
2023-04-14T02:55:20.420Z,3.97
2023-04-14T02:57:48.317Z,3.80
2023-04-14T03:00:16.033Z,4.00
2023-04-14T03:02:45.047Z,3.43
2023-04-14T03:05:12.918Z,3.70
2023-04-14T03:07:42.176Z,3.87
2023-04-14T03:10:10.531Z,3.47
2023-04-14T03:12:38.147Z,3.63
2023-04-14T03:15:07.317Z,4.00
2023-04-14T03:17:36.148Z,3.97
2023-04-14T03:20:03.649Z,4.20
2023-04-14T03:22:31.534Z,4.40
2023-04-14T03:24:58.928Z,3.87
2023-04-14T03:27:27.942Z,3.73
2023-04-14T03:29:58.227Z,4.43
2023-04-14T03:32:29.152Z,4.13
2023-04-14T03:34:58.894Z,3.87
2023-04-14T03:37:27.892Z,4.43
2023-04-14T03:40:00.364Z,4.30
2023-04-14T03:42:29.320Z,5.23
2023-04-14T03:44:58.456Z,4.70
2023-04-14T03:47:26.917Z,5.30
2023-04-14T03:49:57.587Z,4.77
2023-04-14T03:52:26.727Z,5.03
2023-04-14T03:54:58.887Z,4.93
2023-04-14T03:57:29.177Z,3.93
2023-04-14T03:59:57.349Z,4.57
2023-04-14T04:02:26.068Z,4.97
2023-04-14T04:04:55.446Z,4.80
2023-04-14T04:07:23.121Z,4.60
2023-04-14T04:09:51.715Z,4.60
2023-04-14T04:12:20.397Z,4.90
2023-04-14T04:14:47.200Z,4.30
2023-04-14T04:17:16.901Z,4.07
2023-04-14T04:19:45.923Z,4.07
2023-04-14T04:22:17.296Z,4.27
2023-04-14T04:24:45.492Z,3.70
2023-04-14T04:27:24.251Z,4.10
2023-04-14T04:29:53.898Z,4.43
2023-04-14T04:32:20.980Z,4.50
2023-04-14T04:34:50.359Z,4.10
2023-04-14T04:37:19.132Z,4.53
2023-04-14T04:39:45.762Z,4.27
2023-04-14T04:42:12.480Z,3.80
2023-04-14T04:44:39.067Z,4.83
2023-04-14T04:47:06.372Z,4.40
2023-04-14T04:49:32.981Z,4.10
2023-04-14T04:51:59.794Z,4.40
2023-04-14T04:54:27.105Z,4.17
2023-04-14T04:56:53.983Z,3.97
2023-04-14T04:59:20.587Z,4.23
2023-04-14T05:01:47.289Z,4.20
2023-04-14T05:04:13.991Z,4.47
2023-04-14T05:06:40.782Z,4.30
2023-04-14T05:09:07.421Z,4.30
2023-04-14T05:11:34.818Z,4.30
2023-04-14T05:14:02.217Z,4.27
2023-04-14T05:16:29.840Z,5.10
2023-04-14T05:18:56.433Z,5.10
2023-04-14T05:21:23.307Z,4.63
2023-04-14T05:23:50.335Z,4.60
2023-04-14T05:28:46.546Z,4.83
2023-04-14T05:31:13.218Z,5.20
2023-04-14T05:33:40.136Z,4.67
2023-04-14T05:36:07.794Z,5.10
2023-04-14T05:38:39.912Z,4.87
2023-04-14T05:41:07.469Z,4.57
2023-04-14T05:43:34.340Z,4.43
2023-04-14T05:46:01.560Z,4.90
2023-04-14T05:48:30.524Z,4.27
2023-04-14T05:50:57.972Z,4.20
2023-04-14T05:53:24.881Z,4.83
2023-04-14T05:55:52.310Z,3.90
2023-04-14T05:58:19.596Z,4.47
2023-04-14T06:00:46.215Z,4.20
2023-04-14T06:03:12.978Z,4.50
2023-04-14T06:05:39.780Z,4.47
2023-04-14T06:08:06.338Z,4.20
2023-04-14T06:10:32.889Z,4.70
2023-04-14T06:12:59.488Z,5.20
2023-04-14T06:15:29.486Z,4.67
2023-04-14T06:17:56.194Z,4.67
2023-04-14T06:20:22.975Z,5.33
2023-04-14T06:22:50.468Z,5.40
2023-04-14T06:25:17.116Z,5.37
2023-04-14T06:27:43.749Z,4.97
2023-04-14T06:30:10.668Z,5.30
2023-04-14T06:32:37.325Z,4.90
2023-04-14T06:35:04.876Z,5.23
2023-04-14T06:37:32.168Z,4.93
2023-04-14T06:39:58.791Z,5.00
2023-04-14T06:42:25.673Z,4.90
2023-04-14T06:44:52.353Z,4.67
2023-04-14T06:47:21.110Z,4.90
2023-04-14T06:49:47.962Z,4.97
2023-04-14T06:52:14.608Z,5.33
2023-04-14T06:54:42.122Z,4.80
2023-04-14T06:57:08.841Z,4.70
2023-04-14T06:59:35.466Z,4.63
2023-04-14T07:02:02.357Z,5.10
2023-04-14T07:04:29.174Z,4.70
2023-04-14T07:07:00.738Z,5.00
2023-04-14T07:09:28.653Z,5.30
2023-04-14T07:11:57.269Z,4.93
2023-04-14T07:14:24.431Z,5.87
2023-04-14T07:16:51.951Z,5.33
2023-04-14T07:19:19.095Z,5.23
2023-04-14T07:21:46.416Z,5.87
2023-04-14T07:24:15.199Z,5.93
2023-04-14T07:26:44.083Z,6.50
2023-04-14T07:29:10.726Z,6.73
2023-04-14T07:31:38.102Z,6.53
2023-04-14T07:34:05.065Z,6.23
2023-04-14T07:36:32.584Z,6.93
2023-04-14T07:38:59.435Z,7.37
2023-04-14T07:41:26.847Z,6.87
2023-04-14T07:43:55.683Z,6.50
2023-04-14T07:46:22.625Z,7.00
2023-04-14T07:48:49.371Z,6.90
2023-04-14T07:51:22.017Z,6.97
2023-04-14T07:53:48.771Z,7.07
2023-04-14T07:56:15.496Z,6.80
2023-04-14T07:58:42.176Z,6.80
2023-04-14T08:01:08.864Z,6.30
2023-04-14T08:03:37.430Z,5.97
2023-04-14T08:06:06.005Z,5.97
2023-04-14T08:08:33.707Z,5.43
2023-04-14T08:11:00.536Z,5.27
2023-04-14T08:13:27.112Z,4.50
2023-04-14T08:15:53.684Z,4.80
2023-04-14T08:18:20.913Z,4.57
2023-04-14T08:20:47.589Z,4.40
2023-04-14T08:23:14.411Z,4.60
2023-04-14T08:25:42.183Z,4.63
2023-04-14T08:28:08.807Z,4.47
2023-04-14T08:30:35.729Z,4.60
2023-04-14T08:33:02.779Z,4.00
2023-04-14T08:35:37.529Z,4.47
2023-04-14T08:38:07.935Z,4.47
2023-04-14T08:40:43.382Z,4.30
2023-04-14T08:43:12.980Z,3.43
2023-04-14T08:45:41.890Z,4.03
2023-04-14T08:48:09.407Z,4.10
2023-04-14T08:51:09.388Z,3.80
2023-04-14T08:53:43.669Z,4.23
2023-04-14T08:56:16.210Z,3.90
2023-04-14T08:58:43.009Z,4.03
2023-04-14T09:01:10.337Z,4.07
2023-04-14T09:03:41.043Z,4.10
2023-04-14T09:06:07.800Z,3.90
2023-04-14T09:08:35.408Z,4.53
2023-04-14T09:11:03.453Z,4.40
2023-04-14T09:13:31.226Z,4.20
2023-04-14T09:15:58.435Z,4.30
2023-04-14T09:18:25.929Z,4.07
2023-04-14T09:21:52.034Z,4.63
2023-04-14T09:23:41.969Z,4.63
2023-04-14T09:26:10.318Z,5.23
2023-04-14T09:28:37.412Z,5.07
2023-04-14T09:31:04.819Z,5.00
2023-04-14T09:33:31.691Z,5.30
2023-04-14T09:35:58.298Z,6.03
2023-04-14T09:38:36.410Z,5.70
2023-04-14T09:41:05.135Z,5.83
2023-04-14T09:43:31.788Z,6.67
2023-04-14T09:46:04.847Z,6.20
2023-04-14T09:48:31.623Z,7.20
2023-04-14T09:51:07.050Z,6.10
2023-04-14T09:53:35.650Z,6.23
2023-04-14T09:56:04.935Z,6.07
2023-04-14T09:58:34.044Z,6.40
2023-04-14T10:01:03.038Z,6.17
2023-04-14T10:03:38.262Z,6.33
2023-04-14T10:06:10.654Z,6.83
2023-04-14T10:08:38.929Z,6.13
2023-04-14T10:11:18.017Z,6.50
2023-04-14T10:13:49.947Z,5.70
2023-04-14T10:16:17.594Z,6.13
2023-04-14T10:18:44.514Z,5.40
2023-04-14T10:21:11.569Z,5.87
2023-04-14T10:23:39.407Z,6.00
2023-04-14T10:26:11.340Z,5.63
2023-04-14T10:28:43.812Z,6.20
2023-04-14T10:31:20.062Z,5.60
2023-04-14T10:33:46.758Z,5.27
2023-04-14T10:36:22.714Z,5.60
2023-04-14T10:38:49.329Z,5.33
2023-04-14T10:41:15.960Z,5.70
2023-04-14T10:43:42.501Z,5.23
2023-04-14T10:46:10.049Z,6.07
2023-04-14T10:48:41.331Z,5.33
2023-04-14T10:51:09.809Z,5.50
2023-04-14T10:53:50.141Z,5.43
2023-04-14T10:56:21.548Z,6.07
2023-04-14T10:58:59.029Z,5.30
2023-04-14T11:01:32.185Z,5.93
2023-04-14T11:04:17.850Z,5.87
2023-04-14T11:06:54.843Z,5.50
2023-04-14T11:09:26.368Z,5.73
2023-04-14T11:11:55.328Z,5.77
2023-04-14T11:14:31.443Z,6.17
2023-04-14T11:17:04.287Z,6.03
2023-04-14T11:19:32.284Z,5.80
2023-04-14T11:21:59.053Z,6.03
2023-04-14T11:24:26.551Z,6.27
2023-04-14T11:26:57.062Z,6.50
2023-04-14T11:29:23.652Z,5.93
2023-04-14T11:32:05.326Z,6.23
2023-04-14T11:34:33.397Z,6.87
2023-04-14T11:37:03.689Z,6.43
2023-04-14T11:39:30.499Z,6.30
2023-04-14T11:42:00.180Z,5.90
2023-04-14T11:44:27.220Z,5.70
2023-04-14T11:46:54.040Z,5.70
2023-04-14T11:49:33.358Z,5.40
2023-04-14T11:52:06.193Z,5.60
2023-04-14T11:54:37.219Z,5.03
2023-04-14T11:57:18.185Z,4.83
2023-04-14T11:59:45.970Z,4.57
2023-04-14T12:02:20.662Z,5.23
2023-04-14T12:04:50.570Z,5.10
2023-04-14T12:07:19.005Z,5.20
2023-04-14T12:09:48.749Z,5.10
2023-04-14T12:12:17.389Z,6.20
2023-04-14T12:14:45.978Z,5.20
2023-04-14T12:17:13.890Z,4.83
2023-04-14T12:19:40.758Z,5.10
2023-04-14T12:22:09.500Z,4.93
2023-04-14T12:24:40.750Z,4.80
2023-04-14T12:27:09.415Z,6.00
2023-04-14T12:29:39.955Z,5.17
2023-04-14T12:32:13.155Z,4.67
2023-04-14T12:34:39.999Z,4.93
2023-04-14T12:37:11.446Z,5.03
2023-04-14T12:40:00.041Z,4.80
2023-04-14T12:42:28.178Z,4.90
2023-04-14T12:44:58.947Z,5.07
2023-04-14T12:47:34.061Z,4.63
2023-04-14T12:50:03.085Z,4.83
2023-04-14T12:52:40.277Z,5.37
2023-04-14T12:55:19.065Z,4.80
2023-04-14T12:57:45.681Z,4.97
2023-04-14T13:00:13.738Z,5.20
2023-04-14T13:02:44.053Z,5.17
2023-04-14T13:05:12.110Z,5.33
2023-04-14T13:07:38.736Z,5.03
2023-04-14T13:10:05.868Z,4.90
2023-04-14T13:12:32.431Z,5.30
2023-04-14T13:14:59.169Z,5.57
2023-04-14T13:17:26.215Z,5.57
2023-04-14T13:19:53.034Z,5.70
2023-04-14T13:22:19.627Z,5.60
2023-04-14T13:24:46.218Z,6.30
2023-04-14T13:27:12.786Z,5.60
2023-04-14T13:29:41.180Z,5.80
2023-04-14T13:32:12.392Z,5.80
2023-04-14T13:34:39.717Z,6.03
2023-04-14T13:37:06.405Z,5.37
2023-04-14T13:39:33.103Z,5.80
2023-04-14T13:41:59.894Z,5.17
2023-04-14T13:44:26.440Z,6.40
2023-04-14T13:46:53.397Z,6.13
2023-04-14T13:49:20.372Z,5.83
2023-04-14T13:51:47.586Z,6.07
2023-04-14T13:54:14.214Z,6.03
2023-04-14T13:56:40.839Z,6.17
2023-04-14T13:59:08.144Z,5.60
2023-04-14T14:01:34.760Z,5.73
2023-04-14T14:04:01.623Z,6.03
2023-04-14T14:06:28.877Z,5.50
2023-04-14T14:09:05.637Z,5.17
2023-04-14T14:11:34.657Z,4.40
2023-04-14T14:14:01.476Z,4.07
2023-04-14T14:18:57.881Z,3.43
2023-04-14T14:21:24.431Z,3.67
2023-04-14T14:23:51.091Z,4.10
2023-04-14T14:26:17.685Z,3.90
2023-04-14T14:28:45.408Z,3.97
2023-04-14T14:31:11.984Z,3.97
2023-04-14T14:33:38.608Z,4.13
2023-04-14T14:36:05.728Z,3.90
2023-04-14T14:38:32.550Z,4.03
2023-04-14T14:40:59.441Z,3.40
2023-04-14T14:43:26.204Z,4.03
2023-04-14T14:45:52.782Z,4.27
2023-04-14T14:48:20.930Z,4.20
2023-04-14T14:50:47.505Z,3.80
2023-04-14T14:53:14.076Z,3.80
2023-04-14T14:55:40.837Z,3.73
2023-04-14T14:58:08.386Z,3.90
2023-04-14T15:00:35.671Z,4.30
2023-04-14T15:03:02.432Z,4.03
2023-04-14T15:05:29.282Z,6.93
2023-04-14T15:07:55.947Z,3.80
2023-04-14T15:10:22.643Z,3.67
2023-04-14T15:12:49.217Z,3.60
2023-04-14T15:15:18.928Z,3.63
2023-04-14T15:17:46.143Z,3.87
2023-04-14T15:20:13.280Z,4.00
2023-04-14T15:22:40.275Z,3.93
2023-04-14T15:25:09.080Z,3.90
2023-04-14T15:27:35.971Z,4.03
2023-04-14T15:30:03.377Z,4.10
2023-04-14T15:32:30.100Z,4.67
2023-04-14T15:34:56.880Z,4.97
2023-04-14T15:37:23.495Z,4.77
2023-04-14T15:39:50.691Z,5.00
2023-04-14T15:42:17.294Z,4.30
2023-04-14T15:44:43.848Z,4.33
2023-04-14T15:47:11.456Z,4.00
2023-04-14T15:49:38.047Z,4.10
2023-04-14T15:52:05.846Z,4.23
2023-04-14T15:54:33.636Z,3.97
2023-04-14T15:57:00.458Z,4.20
2023-04-14T15:59:28.696Z,4.17
2023-04-14T16:01:56.160Z,4.27
2023-04-14T16:04:23.821Z,4.10
2023-04-14T16:06:51.202Z,3.87
2023-04-14T16:09:17.753Z,4.17
2023-04-14T16:11:44.620Z,3.80
2023-04-14T16:14:11.267Z,4.00
2023-04-14T16:16:38.420Z,3.77
2023-04-14T16:19:05.268Z,4.30
2023-04-14T16:21:31.918Z,3.83
2023-04-14T16:23:58.636Z,3.90
2023-04-14T16:26:25.656Z,8.10
2023-04-14T16:28:52.546Z,4.53
2023-04-14T16:31:19.225Z,3.93
2023-04-14T16:33:46.020Z,3.63
2023-04-14T16:36:12.771Z,4.40
2023-04-14T16:38:39.427Z,4.47
2023-04-14T16:41:06.055Z,3.90
2023-04-14T16:43:32.722Z,4.10
2023-04-14T16:46:03.743Z,4.23
2023-04-14T16:48:31.124Z,4.10
2023-04-14T16:51:00.769Z,3.93
2023-04-14T16:53:27.554Z,4.00
2023-04-14T16:55:54.178Z,3.97
2023-04-14T16:58:20.762Z,3.83
2023-04-14T17:00:47.413Z,3.60
2023-04-14T17:03:14.109Z,3.20
2023-04-14T17:05:40.812Z,4.00
2023-04-14T17:08:07.399Z,3.57
2023-04-14T17:10:34.266Z,3.73
2023-04-14T17:13:01.940Z,3.73
2023-04-14T17:15:28.661Z,3.70
2023-04-14T17:17:55.363Z,3.47
2023-04-14T17:20:22.357Z,3.87
2023-04-14T17:22:50.198Z,6.20
2023-04-14T17:25:19.975Z,3.93
2023-04-14T17:27:47.670Z,4.10
2023-04-14T17:30:14.686Z,3.70
2023-04-14T17:32:41.884Z,3.93
2023-04-14T17:35:09.403Z,3.90
2023-04-14T17:37:36.497Z,3.73
2023-04-14T17:40:04.870Z,4.53
2023-04-14T17:42:32.123Z,4.60
2023-04-14T17:44:58.692Z,3.70
2023-04-14T17:47:25.380Z,4.07
2023-04-14T17:49:52.708Z,4.43
2023-04-14T17:52:20.709Z,4.57
2023-04-14T17:54:49.477Z,4.27
2023-04-14T17:57:17.355Z,4.57
2023-04-14T17:59:44.896Z,4.10
2023-04-14T18:02:14.150Z,4.13
2023-04-14T18:04:40.954Z,4.30
2023-04-14T18:07:07.857Z,4.60
2023-04-14T18:09:34.870Z,4.80
2023-04-14T18:12:02.322Z,4.90
2023-04-14T18:14:29.079Z,4.63
2023-04-14T18:16:55.956Z,5.13
2023-04-14T18:19:23.015Z,5.27
2023-04-14T18:21:49.668Z,4.73
2023-04-14T18:26:45.921Z,5.27
2023-04-14T18:29:12.639Z,6.20
2023-04-14T18:31:39.211Z,5.73
2023-04-14T18:34:10.320Z,6.20
2023-04-14T18:36:38.046Z,6.23
2023-04-14T18:39:05.131Z,6.10
2023-04-14T18:41:31.993Z,6.27
2023-04-14T18:43:58.768Z,6.33
2023-04-14T18:46:25.576Z,6.40
2023-04-14T18:48:52.186Z,6.10
2023-04-14T18:51:18.961Z,6.27
2023-04-14T18:53:46.450Z,6.20
2023-04-14T18:56:13.578Z,6.93
2023-04-14T18:58:40.312Z,7.17
2023-04-14T19:01:08.299Z,6.40
2023-04-14T19:03:37.866Z,6.97
2023-04-14T19:06:05.196Z,6.07
2023-04-14T19:08:31.837Z,6.67
2023-04-14T19:10:59.248Z,6.17
2023-04-14T19:13:26.097Z,6.10
2023-04-14T19:15:52.856Z,6.30
2023-04-14T19:18:21.452Z,6.50
2023-04-14T19:20:49.607Z,7.17
2023-04-14T19:23:16.288Z,6.83
2023-04-14T19:25:43.046Z,7.53
2023-04-14T19:28:16.418Z,6.90
2023-04-14T19:30:44.892Z,7.73
2023-04-14T19:33:13.092Z,6.60
2023-04-14T19:35:40.138Z,7.00
2023-04-14T19:38:07.932Z,7.13
2023-04-14T19:40:34.775Z,7.23
2023-04-14T19:43:01.826Z,7.50
2023-04-14T19:45:28.835Z,7.90
2023-04-14T19:47:55.562Z,8.10
2023-04-14T19:50:24.883Z,7.80
2023-04-14T19:52:52.316Z,7.93
2023-04-14T19:55:19.182Z,7.67
2023-04-14T19:57:46.871Z,8.00
2023-04-14T20:00:14.010Z,8.00
2023-04-14T20:02:42.090Z,7.70
2023-04-14T20:05:09.029Z,6.90
2023-04-14T20:07:35.597Z,7.97
2023-04-14T20:10:02.539Z,7.27
2023-04-14T20:12:29.302Z,7.90
2023-04-14T20:14:58.796Z,7.50
2023-04-14T20:17:27.196Z,7.70
2023-04-14T20:19:53.956Z,7.87
2023-04-14T20:22:20.994Z,8.20
2023-04-14T20:24:47.621Z,8.00
2023-04-14T20:27:14.604Z,8.70
2023-04-14T20:29:41.255Z,8.10
2023-04-14T20:32:07.827Z,8.53
2023-04-14T20:34:35.394Z,9.10
2023-04-14T20:37:02.636Z,9.43
2023-04-14T20:39:29.499Z,9.63
2023-04-14T20:41:59.400Z,10.00
2023-04-14T20:44:28.628Z,9.80
2023-04-14T20:46:55.681Z,10.17
2023-04-14T20:49:22.637Z,10.37
2023-04-14T20:51:50.035Z,10.30
2023-04-14T20:54:17.118Z,10.23
2023-04-14T20:56:47.235Z,10.70
2023-04-14T20:59:13.865Z,10.83
2023-04-14T21:01:42.713Z,11.30
2023-04-14T21:04:10.175Z,11.73
2023-04-14T21:06:37.628Z,11.13
2023-04-14T21:09:05.551Z,11.33
2023-04-14T21:11:32.501Z,12.00
2023-04-14T21:15:40.048Z,11.27
2023-04-14T21:16:45.944Z,10.80
2023-04-14T21:19:13.450Z,11.10
2023-04-14T21:21:40.105Z,11.63
2023-04-14T21:24:06.931Z,11.70
2023-04-14T21:26:33.661Z,11.57
2023-04-14T21:29:03.625Z,11.90
2023-04-14T21:31:30.481Z,12.07
2023-04-14T21:33:57.109Z,12.43
2023-04-14T21:36:24.374Z,12.17
2023-04-14T21:38:51.634Z,12.23
2023-04-14T21:41:18.245Z,12.10
2023-04-14T21:43:44.973Z,12.40
2023-04-14T21:46:11.570Z,12.97
2023-04-14T21:48:40.525Z,12.97
2023-04-14T21:51:07.611Z,12.63
2023-04-14T21:53:34.851Z,13.10
2023-04-14T21:56:10.037Z,13.67
2023-04-14T21:58:39.150Z,13.10
2023-04-14T22:01:07.004Z,13.73
2023-04-14T22:03:33.781Z,13.70
2023-04-14T22:06:01.164Z,13.70
2023-04-14T22:08:27.799Z,14.30
2023-04-14T22:10:54.899Z,13.27
2023-04-14T22:13:21.566Z,14.17
2023-04-14T22:15:49.139Z,13.80
2023-04-14T22:18:17.073Z,13.67
2023-04-14T22:20:44.975Z,14.43
2023-04-14T22:23:12.376Z,14.57
2023-04-14T22:25:39.098Z,14.30
2023-04-14T22:28:05.940Z,14.83
2023-04-14T22:30:32.598Z,15.33
2023-04-14T22:32:59.203Z,14.53
2023-04-14T22:35:26.295Z,14.60
2023-04-14T22:37:53.397Z,15.53
2023-04-14T22:40:19.983Z,15.23
2023-04-14T22:42:48.142Z,15.37
2023-04-14T22:45:17.160Z,15.50
2023-04-14T22:47:43.755Z,16.13
2023-04-14T22:50:10.626Z,15.87
2023-04-14T22:52:37.541Z,16.07
2023-04-14T22:55:04.437Z,16.07
2023-04-14T22:57:31.026Z,17.23
2023-04-14T22:59:57.693Z,16.93
2023-04-14T23:02:24.380Z,16.47
2023-04-14T23:04:53.736Z,15.97
2023-04-14T23:07:21.225Z,16.60
2023-04-14T23:09:47.825Z,17.40
2023-04-14T23:12:14.412Z,16.53
2023-04-14T23:14:41.131Z,17.77
2023-04-14T23:17:07.738Z,17.17
2023-04-14T23:19:35.714Z,17.70
2023-04-14T23:22:02.657Z,17.87
2023-04-14T23:24:29.418Z,17.83
2023-04-14T23:26:56.047Z,18.47
2023-04-14T23:29:22.634Z,19.67
2023-04-14T23:31:49.326Z,17.87
2023-04-14T23:34:16.121Z,19.00
2023-04-14T23:36:46.192Z,19.57
2023-04-14T23:39:13.157Z,19.00
2023-04-14T23:41:39.710Z,19.97
2023-04-14T23:44:07.589Z,19.70
2023-04-14T23:46:34.425Z,19.50
2023-04-14T23:49:02.832Z,19.83
2023-04-14T23:51:37.569Z,20.10
2023-04-14T23:54:05.456Z,20.60
2023-04-14T23:56:32.314Z,20.20
2023-04-14T23:58:59.558Z,20.17
